createdAt,value
2022-08-25T00:00:21.364Z,97773.33
2022-08-25T00:03:04.963Z,97775.77
2022-08-25T00:05:36.079Z,97774.26
2022-08-25T00:08:07.436Z,97774.93
2022-08-25T00:10:38.526Z,97777.70
2022-08-25T00:13:07.415Z,97778.14
2022-08-25T00:15:36.372Z,97773.81
2022-08-25T00:18:05.703Z,97767.37
2022-08-25T00:20:49.273Z,97767.33
2022-08-25T00:23:18.624Z,97770.59
2022-08-25T00:25:46.617Z,97766.06
2022-08-25T00:28:16.992Z,97770.33
2022-08-25T00:30:45.284Z,97770.63
2022-08-25T00:33:14.820Z,97769.02
2022-08-25T00:35:43.305Z,97765.95
2022-08-25T00:38:12.765Z,97765.17
2022-08-25T00:40:42.279Z,97766.74
2022-08-25T00:43:11.351Z,97768.38
2022-08-25T00:45:40.157Z,97768.09
2022-08-25T00:48:08.238Z,97765.82
2022-08-25T00:50:36.597Z,97761.83
2022-08-25T00:53:06.077Z,97759.30
2022-08-25T00:55:38.190Z,97755.61
2022-08-25T00:58:15.295Z,97753.02
2022-08-25T01:00:48.469Z,97749.39
2022-08-25T01:03:19.267Z,97747.75
2022-08-25T01:05:49.172Z,97746.45
2022-08-25T01:08:22.093Z,97741.94
2022-08-25T01:10:50.844Z,97748.48
2022-08-25T01:13:34.175Z,97747.34
2022-08-25T01:16:02.529Z,97746.46
2022-08-25T01:18:44.731Z,97748.70
2022-08-25T01:21:13.175Z,97745.83
2022-08-25T01:23:42.362Z,97742.80
2022-08-25T01:26:19.299Z,97743.28
2022-08-25T01:29:08.952Z,97748.47
2022-08-25T01:31:38.574Z,97744.19
2022-08-25T01:34:08.891Z,97740.02
2022-08-25T01:36:36.842Z,97740.73
2022-08-25T01:39:05.934Z,97739.15
2022-08-25T01:41:45.231Z,97739.66
2022-08-25T01:44:16.683Z,97742.62
2022-08-25T01:46:44.840Z,97740.98
2022-08-25T01:49:12.980Z,97738.54
2022-08-25T01:52:00.644Z,97736.16
2022-08-25T01:54:28.778Z,97744.30
2022-08-25T01:56:58.266Z,97738.39
2022-08-25T01:59:27.344Z,97736.05
2022-08-25T02:01:57.502Z,97738.43
2022-08-25T02:04:33.108Z,97738.06
2022-08-25T02:07:06.754Z,97734.14
2022-08-25T02:09:37.083Z,97732.05
2022-08-25T02:12:05.687Z,97728.23
2022-08-25T02:14:35.738Z,97729.55
2022-08-25T02:17:06.395Z,97722.27
2022-08-25T02:19:34.431Z,97721.98
2022-08-25T02:22:02.867Z,97728.80
2022-08-25T02:24:33.290Z,97731.20
2022-08-25T02:27:02.051Z,97734.38
2022-08-25T02:29:30.361Z,97736.30
2022-08-25T02:31:59.016Z,97732.16
2022-08-25T02:34:27.647Z,97733.38
2022-08-25T02:36:55.925Z,97735.12
2022-08-25T02:39:24.050Z,97736.26
2022-08-25T02:41:52.155Z,97734.90
2022-08-25T02:44:21.204Z,97732.31
2022-08-25T02:46:49.296Z,97733.52
2022-08-25T02:49:17.713Z,97729.02
2022-08-25T02:51:45.773Z,97730.35
2022-08-25T02:54:14.168Z,97730.45
2022-08-25T02:56:43.000Z,97734.10
2022-08-25T02:59:12.350Z,97739.34
2022-08-25T03:01:40.939Z,97747.39
2022-08-25T03:04:09.011Z,97743.67
2022-08-25T03:06:37.093Z,97740.86
2022-08-25T03:09:05.277Z,97738.64
2022-08-25T03:11:33.421Z,97744.88
2022-08-25T03:14:01.491Z,97747.23
2022-08-25T03:16:29.729Z,97748.30
2022-08-25T03:18:58.468Z,97749.23
2022-08-25T03:21:29.419Z,97749.08
2022-08-25T03:23:59.527Z,97749.47
2022-08-25T03:26:46.228Z,97754.30
2022-08-25T03:29:14.342Z,97750.45
2022-08-25T03:31:44.943Z,97751.58
2022-08-25T03:34:17.589Z,97754.66
2022-08-25T03:36:48.610Z,97753.56
2022-08-25T03:39:18.526Z,97754.69
2022-08-25T03:41:47.316Z,97757.29
2022-08-25T03:44:18.766Z,97757.63
2022-08-25T03:46:49.926Z,97754.30
2022-08-25T03:49:22.830Z,97760.66
2022-08-25T03:51:53.839Z,97760.09
2022-08-25T03:54:26.288Z,97758.88
2022-08-25T03:56:55.978Z,97757.64
2022-08-25T03:59:24.120Z,97759.64
2022-08-25T04:01:55.134Z,97755.68
2022-08-25T04:04:24.674Z,97756.01
2022-08-25T04:06:53.990Z,97758.10
2022-08-25T04:09:23.287Z,97760.71
2022-08-25T04:11:53.267Z,97763.83
2022-08-25T04:14:23.668Z,97767.08
2022-08-25T04:16:53.574Z,97764.20
2022-08-25T04:19:22.330Z,97766.51
2022-08-25T04:21:51.799Z,97768.76
2022-08-25T04:24:25.229Z,97768.02
2022-08-25T04:26:53.425Z,97769.59
2022-08-25T04:29:23.989Z,97767.77
2022-08-25T04:31:54.438Z,97772.85
2022-08-25T04:34:29.991Z,97775.16
2022-08-25T04:37:02.705Z,97770.23
2022-08-25T04:39:31.328Z,97767.65
2022-08-25T04:42:01.185Z,97764.05
2022-08-25T04:44:30.969Z,97756.34
2022-08-25T04:47:01.578Z,97757.61
2022-08-25T04:49:31.787Z,97758.40
2022-08-25T04:52:00.279Z,97757.91
2022-08-25T04:54:36.045Z,97760.09
2022-08-25T04:57:06.951Z,97755.98
2022-08-25T04:59:34.982Z,97757.20
2022-08-25T05:02:05.924Z,97755.31
2022-08-25T05:04:36.245Z,97755.43
2022-08-25T05:07:05.187Z,97753.31
2022-08-25T05:09:34.630Z,97749.60
2022-08-25T05:12:04.160Z,97747.71
2022-08-25T05:14:32.938Z,97743.33
2022-08-25T05:17:02.104Z,97743.98
2022-08-25T05:19:32.939Z,97746.63
2022-08-25T05:22:02.421Z,97748.14
2022-08-25T05:24:30.632Z,97744.97
2022-08-25T05:26:59.300Z,97744.25
2022-08-25T05:29:27.443Z,97742.73
2022-08-25T05:31:56.068Z,97740.02
2022-08-25T05:34:24.984Z,97734.15
2022-08-25T05:36:53.110Z,97735.62
2022-08-25T05:39:21.166Z,97734.19
2022-08-25T05:41:49.210Z,97737.13
2022-08-25T05:44:21.338Z,97737.23
2022-08-25T05:46:51.409Z,97737.86
2022-08-25T05:49:21.633Z,97734.39
2022-08-25T05:51:49.927Z,97733.22
2022-08-25T05:54:18.019Z,97734.10
2022-08-25T05:56:46.090Z,97731.72
2022-08-25T05:59:14.934Z,97731.34
2022-08-25T06:02:01.637Z,97733.50
2022-08-25T06:04:31.302Z,97733.44
2022-08-25T06:07:00.097Z,97733.33
2022-08-25T06:09:28.150Z,97726.86
2022-08-25T06:11:56.398Z,97724.70
2022-08-25T06:14:25.964Z,97725.79
2022-08-25T06:16:54.075Z,97718.17
2022-08-25T06:19:23.773Z,97710.09
2022-08-25T06:21:57.596Z,97704.57
2022-08-25T06:24:28.125Z,97706.96
2022-08-25T06:26:56.859Z,97703.48
2022-08-25T06:29:26.492Z,97701.47
2022-08-25T06:31:54.983Z,97694.59
2022-08-25T06:34:24.226Z,97697.59
2022-08-25T06:36:52.896Z,97701.20
2022-08-25T06:39:21.693Z,97701.02
2022-08-25T06:41:56.748Z,97700.15
2022-08-25T06:44:27.857Z,97702.28
2022-08-25T06:46:56.636Z,97703.23
2022-08-25T06:49:29.276Z,97703.16
2022-08-25T06:52:00.028Z,97690.86
2022-08-25T06:54:28.117Z,97692.71
2022-08-25T06:56:57.023Z,97698.52
2022-08-25T06:59:31.983Z,97696.23
2022-08-25T07:02:03.243Z,97693.70
2022-08-25T07:04:33.185Z,97692.67
2022-08-25T07:07:02.831Z,97688.61
2022-08-25T07:09:31.430Z,97688.34
2022-08-25T07:12:00.409Z,97686.15
2022-08-25T07:14:28.637Z,97687.91
2022-08-25T07:16:57.033Z,97687.37
2022-08-25T07:19:25.707Z,97685.19
2022-08-25T07:21:54.373Z,97682.95
2022-08-25T07:24:24.282Z,97679.64
2022-08-25T07:26:52.766Z,97676.41
2022-08-25T07:32:15.385Z,97671.75
2022-08-25T07:35:02.377Z,97671.46
2022-08-25T07:37:48.026Z,97671.06
2022-08-25T07:40:21.902Z,97670.84
2022-08-25T07:42:52.395Z,97665.88
2022-08-25T07:45:26.310Z,97668.11
2022-08-25T07:47:55.812Z,97664.06
2022-08-25T07:50:24.744Z,97659.79
2022-08-25T07:52:54.866Z,97661.35
2022-08-25T07:55:28.353Z,97661.91
2022-08-25T07:58:00.423Z,97655.54
2022-08-25T08:00:35.875Z,97650.36
2022-08-25T08:03:08.183Z,97645.43
2022-08-25T08:33:35.276Z,97612.85
2022-08-25T08:35:12.895Z,97610.45
2022-08-25T08:43:47.275Z,97605.98
2022-08-25T09:03:55.507Z,97588.73
2022-08-25T09:06:38.607Z,97589.70
2022-08-25T09:09:11.186Z,97585.93
2022-08-25T09:11:51.556Z,97584.49
2022-08-25T09:14:45.992Z,97579.39
2022-08-25T09:17:46.181Z,97574.76
2022-08-25T09:20:59.770Z,97571.09
2022-08-25T09:24:07.552Z,97572.29
2022-08-25T09:26:59.080Z,97567.06
2022-08-25T09:29:41.942Z,97567.80
2022-08-25T09:32:11.637Z,97563.91
2022-08-25T09:34:46.634Z,97561.25
2022-08-25T09:37:15.010Z,97563.45
2022-08-25T09:39:43.667Z,97556.05
2022-08-25T09:42:12.727Z,97555.10
2022-08-25T09:44:48.930Z,97554.56
2022-08-25T09:47:20.903Z,97552.48
2022-08-25T09:50:00.374Z,97549.36
2022-08-25T09:52:35.354Z,97543.79
2022-08-25T09:55:09.701Z,97542.08
2022-08-25T09:57:47.894Z,97541.77
2022-08-25T10:00:33.893Z,97540.09
2022-08-25T10:03:22.627Z,97535.68
2022-08-25T10:05:56.650Z,97537.89
2022-08-25T10:08:45.649Z,97531.83
2022-08-25T10:11:31.293Z,97526.66
2022-08-25T10:14:09.077Z,97524.15
2022-08-25T10:16:49.372Z,97523.86
2022-08-25T10:19:29.492Z,97518.02
2022-08-25T10:22:11.367Z,97511.00
2022-08-25T10:24:43.819Z,97507.59
2022-08-25T10:27:28.803Z,97506.72
2022-08-25T10:30:30.159Z,97497.94
2022-08-25T10:33:18.595Z,97496.61
2022-08-25T10:35:57.078Z,97499.98
2022-08-25T10:38:36.051Z,97492.83
2022-08-25T10:41:30.956Z,97493.21
2022-08-25T10:44:55.266Z,97486.13
2022-08-25T10:48:01.569Z,97486.80
2022-08-25T10:50:38.661Z,97486.35
2022-08-25T10:53:45.277Z,97485.61
2022-08-25T10:56:28.796Z,97486.70
2022-08-25T10:59:07.301Z,97486.38
2022-08-25T11:01:57.902Z,97484.09
2022-08-25T11:04:40.341Z,97477.13
2022-08-25T11:07:22.238Z,97474.02
2022-08-25T11:09:55.158Z,97473.05
2022-08-25T11:12:45.464Z,97474.02
2022-08-25T11:15:54.543Z,97471.23
2022-08-25T11:18:34.314Z,97471.10
2022-08-25T11:21:16.302Z,97469.00
2022-08-25T11:23:55.636Z,97464.08
2022-08-25T11:26:36.673Z,97463.04
2022-08-25T11:29:16.011Z,97455.84
2022-08-25T11:31:53.363Z,97451.68
2022-08-25T11:34:23.423Z,97451.23
2022-08-25T11:37:11.085Z,97446.23
2022-08-25T11:40:06.755Z,97446.95
2022-08-25T11:43:03.637Z,97441.85
2022-08-25T11:46:27.753Z,97436.52
2022-08-25T11:49:15.452Z,97437.02
2022-08-25T11:51:49.395Z,97438.02
2022-08-25T11:54:34.876Z,97439.77
2022-08-25T11:57:18.271Z,97439.02
2022-08-25T11:59:52.712Z,97436.86
2022-08-25T12:02:51.715Z,97433.23
2022-08-25T12:05:20.233Z,97428.02
2022-08-25T12:07:48.641Z,97429.16
2022-08-25T12:10:21.618Z,97430.08
2022-08-25T12:12:59.964Z,97428.21
2022-08-25T12:15:34.881Z,97422.38
2022-08-25T12:18:26.887Z,97424.77
2022-08-25T12:20:55.217Z,97421.52
2022-08-25T12:23:32.654Z,97420.96
2022-08-25T12:26:26.219Z,97417.77
2022-08-25T12:29:01.344Z,97416.69
2022-08-25T12:31:57.457Z,97416.02
2022-08-25T12:34:59.617Z,97418.23
2022-08-25T12:37:31.912Z,97421.92
2022-08-25T12:40:04.960Z,97419.11
2022-08-25T12:42:37.964Z,97415.52
2022-08-25T12:45:24.111Z,97421.84
2022-08-25T12:47:54.804Z,97423.71
2022-08-25T12:50:28.308Z,97418.10
2022-08-25T12:53:11.217Z,97418.27
2022-08-25T12:55:49.204Z,97412.80
2022-08-25T12:58:26.363Z,97409.96
2022-08-25T13:01:35.401Z,97409.75
2022-08-25T13:04:47.431Z,97402.04
2022-08-25T13:07:39.761Z,97401.94
2022-08-25T13:10:22.822Z,97395.82
2022-08-25T13:13:05.143Z,97394.67
2022-08-25T13:15:35.764Z,97393.61
2022-08-25T13:18:36.675Z,97391.16
2022-08-25T13:21:19.247Z,97384.98
2022-08-25T13:24:04.649Z,97381.76
2022-08-25T13:26:48.499Z,97380.90
2022-08-25T13:29:24.931Z,97378.89
2022-08-25T13:32:14.447Z,97380.31
2022-08-25T13:34:43.927Z,97377.05
2022-08-25T13:37:29.699Z,97379.40
2022-08-25T13:40:17.721Z,97376.80
2022-08-25T13:42:55.468Z,97377.59
2022-08-25T13:45:28.528Z,97380.59
2022-08-25T13:47:58.457Z,97379.89
2022-08-25T13:50:26.888Z,97377.02
2022-08-25T13:53:14.878Z,97371.30
2022-08-25T13:56:00.251Z,97368.64
2022-08-25T13:58:44.861Z,97368.39
2022-08-25T14:01:22.916Z,97373.05
2022-08-25T14:04:33.596Z,97373.60
2022-08-25T14:07:20.333Z,97372.02
2022-08-25T14:09:57.128Z,97365.27
2022-08-25T14:12:36.635Z,97361.45
2022-08-25T14:15:22.974Z,97357.56
2022-08-25T14:18:19.408Z,97356.94
2022-08-25T14:20:52.285Z,97359.26
2022-08-25T14:23:31.761Z,97357.89
2022-08-25T14:26:01.598Z,97353.04
2022-08-25T14:28:32.022Z,97349.80
2022-08-25T14:31:14.645Z,97349.75
2022-08-25T14:33:52.052Z,97342.89
2022-08-25T14:36:20.874Z,97343.56
2022-08-25T14:38:54.549Z,97346.27
2022-08-25T14:41:26.010Z,97342.33
2022-08-25T14:43:56.336Z,97339.88
2022-08-25T14:46:28.192Z,97337.69
2022-08-25T14:49:01.074Z,97338.33
2022-08-25T14:51:33.060Z,97337.20
2022-08-25T14:54:05.846Z,97341.31
2022-08-25T14:56:37.964Z,97342.63
2022-08-25T14:59:11.904Z,97340.15
2022-08-25T15:01:41.127Z,97342.81
2022-08-25T15:04:22.776Z,97337.64
2022-08-25T15:07:23.429Z,97340.35
2022-08-25T15:09:54.590Z,97341.39
2022-08-25T15:12:46.054Z,97337.48
2022-08-25T15:15:11.401Z,97338.03
2022-08-25T15:17:44.406Z,97340.04
2022-08-25T15:20:14.134Z,97332.02
2022-08-25T15:22:45.600Z,97333.41
2022-08-25T15:25:14.139Z,97335.61
2022-08-25T15:27:43.316Z,97334.63
2022-08-25T15:30:13.530Z,97331.04
2022-08-25T15:32:42.328Z,97332.35
2022-08-25T15:35:11.108Z,97332.24
2022-08-25T15:37:43.915Z,97329.41
2022-08-25T15:40:12.857Z,97330.29
2022-08-25T15:42:42.844Z,97328.41
2022-08-25T15:45:15.439Z,97327.38
2022-08-25T15:47:43.714Z,97324.01
2022-08-25T15:50:15.003Z,97322.52
2022-08-25T15:52:47.460Z,97321.03
2022-08-25T15:55:21.288Z,97318.25
2022-08-25T15:57:50.094Z,97314.86
2022-08-25T16:00:19.201Z,97314.50
2022-08-25T16:02:50.969Z,97317.66
2022-08-25T16:05:25.708Z,97311.92
2022-08-25T16:07:55.350Z,97316.91
2022-08-25T16:10:23.970Z,97317.64
2022-08-25T16:12:53.420Z,97315.21
2022-08-25T16:15:23.889Z,97314.11
2022-08-25T16:18:00.447Z,97314.10
2022-08-25T16:20:30.947Z,97315.40
2022-08-25T16:23:00.800Z,97308.42
2022-08-25T16:25:30.746Z,97312.85
2022-08-25T16:27:58.928Z,97317.25
2022-08-25T16:30:27.270Z,97316.30
2022-08-25T16:32:56.669Z,97317.96
2022-08-25T16:35:25.405Z,97318.20
2022-08-25T16:37:55.205Z,97317.48
2022-08-25T16:40:26.488Z,97320.57
2022-08-25T16:42:55.722Z,97318.17
2022-08-25T16:45:24.719Z,97316.81
2022-08-25T16:47:53.374Z,97318.61
2022-08-25T16:50:22.655Z,97321.48
2022-08-25T16:53:09.257Z,97322.23
2022-08-25T16:55:40.075Z,97322.79
2022-08-25T16:58:13.380Z,97323.39
2022-08-25T17:00:44.592Z,97321.80
2022-08-25T17:03:13.272Z,97320.30
2022-08-25T17:05:43.426Z,97326.19
2022-08-25T17:08:30.777Z,97326.44
2022-08-25T17:11:14.680Z,97326.42
2022-08-25T17:13:47.037Z,97327.48
2022-08-25T17:16:21.413Z,97329.17
2022-08-25T17:18:50.514Z,97329.45
2022-08-25T17:21:25.040Z,97336.34
2022-08-25T17:23:56.479Z,97335.87
2022-08-25T17:26:27.967Z,97336.13
2022-08-25T17:28:59.727Z,97337.51
2022-08-25T17:31:29.861Z,97340.58
2022-08-25T17:33:59.500Z,97341.23
2022-08-25T17:36:29.206Z,97344.55
2022-08-25T17:38:57.788Z,97346.83
2022-08-25T17:41:27.547Z,97346.98
2022-08-25T17:43:55.746Z,97346.61
2022-08-25T17:46:27.414Z,97353.92
2022-08-25T17:48:58.125Z,97355.84
2022-08-25T17:51:27.128Z,97361.60
2022-08-25T17:54:00.134Z,97361.67
2022-08-25T17:56:29.279Z,97365.75
2022-08-25T17:58:58.002Z,97364.33
2022-08-25T18:01:32.207Z,97371.38
2022-08-25T18:04:00.659Z,97379.48
2022-08-25T18:06:31.138Z,97381.92
2022-08-25T18:09:01.825Z,97386.07
2022-08-25T18:11:31.769Z,97387.63
2022-08-25T18:14:01.086Z,97394.75
2022-08-25T18:16:29.841Z,97396.25
2022-08-25T18:18:57.931Z,97398.77
2022-08-25T18:21:30.581Z,97401.85
2022-08-25T18:23:58.926Z,97400.23
2022-08-25T18:26:28.080Z,97399.98
2022-08-25T18:28:58.407Z,97401.72
2022-08-25T18:31:26.958Z,97402.28
2022-08-25T18:33:55.327Z,97404.13
2022-08-25T18:36:23.483Z,97406.63
2022-08-25T18:39:10.156Z,97407.89
2022-08-25T18:41:40.745Z,97406.07
2022-08-25T18:44:10.753Z,97408.98
2022-08-25T18:46:40.335Z,97409.66
2022-08-25T18:49:09.261Z,97408.98
2022-08-25T18:51:37.561Z,97413.31
2022-08-25T18:54:06.139Z,97417.88
2022-08-25T18:56:35.010Z,97413.05
2022-08-25T18:59:04.782Z,97414.85
2022-08-25T19:01:37.690Z,97417.18
2022-08-25T19:04:06.010Z,97419.94
2022-08-25T19:06:34.094Z,97423.38
2022-08-25T19:09:02.209Z,97425.80
2022-08-25T19:11:31.097Z,97433.83
2022-08-25T19:13:59.874Z,97436.66
2022-08-25T19:16:35.952Z,97430.55
2022-08-25T19:19:09.324Z,97419.11
2022-08-25T19:21:39.111Z,97419.11
2022-08-25T19:24:09.908Z,97422.51
2022-08-25T19:26:39.503Z,97421.27
2022-08-25T19:29:12.903Z,97421.60
2022-08-25T19:31:43.216Z,97424.66
2022-08-25T19:34:16.480Z,97430.72
2022-08-25T19:36:47.790Z,97435.55
2022-08-25T19:39:16.751Z,97438.33
2022-08-25T19:41:47.357Z,97446.52
2022-08-25T19:44:19.433Z,97449.88
2022-08-25T19:46:47.807Z,97446.99
2022-08-25T19:49:31.655Z,97451.67
2022-08-25T19:52:03.513Z,97453.64
2022-08-25T19:54:48.571Z,97457.13
2022-08-25T19:57:16.872Z,97459.56
2022-08-25T19:59:56.807Z,97463.98
2022-08-25T20:02:29.689Z,97459.86
2022-08-25T20:05:01.944Z,97461.80
2022-08-25T20:07:31.635Z,97463.75
2022-08-25T20:10:01.535Z,97465.86
2022-08-25T20:12:29.999Z,97466.30
2022-08-25T20:14:58.464Z,97466.79
2022-08-25T20:17:28.617Z,97465.78
2022-08-25T20:20:01.676Z,97459.44
2022-08-25T20:22:33.671Z,97459.73
2022-08-25T20:25:17.642Z,97460.48
2022-08-25T20:27:49.672Z,97456.88
2022-08-25T20:30:30.377Z,97455.21
2022-08-25T20:32:59.822Z,97454.42
2022-08-25T20:35:29.328Z,97452.44
2022-08-25T20:37:58.539Z,97457.70
2022-08-25T20:40:29.951Z,97455.39
2022-08-25T20:43:03.089Z,97456.77
2022-08-25T20:45:35.961Z,97458.69
2022-08-25T20:48:04.380Z,97456.43
2022-08-25T20:50:33.888Z,97455.90
2022-08-25T20:53:02.671Z,97460.13
2022-08-25T20:55:32.204Z,97464.21
2022-08-25T20:58:08.696Z,97466.39
2022-08-25T21:00:37.771Z,97473.04
2022-08-25T21:03:06.005Z,97472.34
2022-08-25T21:05:39.157Z,97476.23
2022-08-25T21:08:10.481Z,97471.66
2022-08-25T21:10:40.193Z,97470.40
2022-08-25T21:13:08.366Z,97471.29
2022-08-25T21:15:40.773Z,97469.24
2022-08-25T21:18:10.123Z,97473.91
2022-08-25T21:20:40.071Z,97474.25
2022-08-25T21:23:08.516Z,97477.11
2022-08-25T21:25:41.934Z,97478.39
2022-08-25T21:28:10.126Z,97478.44
2022-08-25T21:30:44.800Z,97481.11
2022-08-25T21:33:17.192Z,97478.53
2022-08-25T21:35:46.859Z,97480.42
2022-08-25T21:38:15.334Z,97475.75
2022-08-25T21:40:46.012Z,97475.62
2022-08-25T21:43:18.640Z,97479.52
2022-08-25T21:45:47.216Z,97478.15
2022-08-25T21:48:16.654Z,97480.89
2022-08-25T21:50:45.930Z,97478.81
2022-08-25T21:53:14.117Z,97482.05
2022-08-25T21:55:44.432Z,97484.41
2022-08-25T21:58:13.189Z,97482.98
2022-08-25T22:00:41.812Z,97482.88
2022-08-25T22:03:09.896Z,97476.69
2022-08-25T22:05:38.426Z,97480.92
2022-08-25T22:08:08.741Z,97481.10
2022-08-25T22:10:43.499Z,97479.20
2022-08-25T22:13:11.762Z,97477.56
2022-08-25T22:15:40.611Z,97479.48
2022-08-25T22:18:08.856Z,97479.20
2022-08-25T22:20:39.201Z,97476.87
2022-08-25T22:23:10.029Z,97474.02
2022-08-25T22:25:48.573Z,97474.48
2022-08-25T22:28:17.099Z,97465.97
2022-08-25T22:30:45.194Z,97464.27
2022-08-25T22:33:13.623Z,97462.69
2022-08-25T22:35:42.206Z,97460.48
2022-08-25T22:38:12.271Z,97462.80
2022-08-25T22:40:41.440Z,97461.42
2022-08-25T22:43:10.955Z,97460.50
2022-08-25T22:45:39.954Z,97461.56
2022-08-25T22:48:08.046Z,97460.23
2022-08-25T22:50:37.125Z,97464.20
2022-08-25T22:53:05.148Z,97463.73
2022-08-25T22:55:33.274Z,97466.66
2022-08-25T22:58:01.462Z,97460.04
2022-08-25T23:00:29.478Z,97458.96
2022-08-25T23:02:57.576Z,97462.61
2022-08-25T23:05:25.618Z,97462.81
2022-08-25T23:07:57.801Z,97460.52
2022-08-25T23:10:26.648Z,97462.89
2022-08-25T23:12:54.914Z,97463.53
2022-08-25T23:15:23.223Z,97458.57
2022-08-25T23:17:51.592Z,97455.27
2022-08-25T23:20:55.102Z,97457.44
2022-08-25T23:23:25.001Z,97456.33
2022-08-25T23:25:54.171Z,97454.80
2022-08-25T23:28:22.230Z,97452.80
2022-08-25T23:30:57.139Z,97455.23
2022-08-25T23:33:27.711Z,97454.24
2022-08-25T23:36:04.300Z,97451.40
2022-08-25T23:38:32.939Z,97450.56
2022-08-25T23:41:06.298Z,97447.89
2022-08-25T23:43:35.436Z,97446.95
2022-08-25T23:46:04.596Z,97446.97
2022-08-25T23:48:33.894Z,97447.75
2022-08-25T23:51:03.842Z,97445.69
2022-08-25T23:53:32.130Z,97446.55
2022-08-25T23:56:00.182Z,97449.02
2022-08-25T23:58:29.004Z,97444.80
